sensor_id;sensor_type;location;lat;lon;timestamp;pressure;altitude;pressure_sealevel;temperature
68745;BMP180;66104;45.456;11.064;2023-04-25T00:00:15;99925.40;;;15.02
68745;BMP180;66104;45.456;11.064;2023-04-25T00:02:53;99929.60;;;15.00
68745;BMP180;66104;45.456;11.064;2023-04-25T00:05:35;99917.40;;;15.00
68745;BMP180;66104;45.456;11.064;2023-04-25T00:08:14;99905.40;;;15.00
68745;BMP180;66104;45.456;11.064;2023-04-25T00:10:52;99902.80;;;15.00
68745;BMP180;66104;45.456;11.064;2023-04-25T00:13:31;99902.80;;;15.00
68745;BMP180;66104;45.456;11.064;2023-04-25T00:16:10;99902.80;;;15.08
68745;BMP180;66104;45.456;11.064;2023-04-25T00:18:49;99904.20;;;15.10
68745;BMP180;66104;45.456;11.064;2023-04-25T00:21:28;99900.20;;;15.10
68745;BMP180;66104;45.456;11.064;2023-04-25T00:24:08;99897.20;;;15.10
68745;BMP180;66104;45.456;11.064;2023-04-25T00:26:50;99902.20;;;15.10
68745;BMP180;66104;45.456;11.064;2023-04-25T00:29:29;99899.80;;;15.10
68745;BMP180;66104;45.456;11.064;2023-04-25T00:32:09;99901.20;;;15.10
68745;BMP180;66104;45.456;11.064;2023-04-25T00:34:48;99897.80;;;15.10
68745;BMP180;66104;45.456;11.064;2023-04-25T00:37:26;99894.40;;;15.10
68745;BMP180;66104;45.456;11.064;2023-04-25T00:40:11;99892.40;;;15.10
68745;BMP180;66104;45.456;11.064;2023-04-25T00:42:54;99887.60;;;15.04
68745;BMP180;66104;45.456;11.064;2023-04-25T00:45:33;99883.00;;;15.00
68745;BMP180;66104;45.456;11.064;2023-04-25T00:48:17;99883.60;;;15.00
68745;BMP180;66104;45.456;11.064;2023-04-25T00:50:59;99882.00;;;14.90
68745;BMP180;66104;45.456;11.064;2023-04-25T00:53:39;99874.60;;;14.80
68745;BMP180;66104;45.456;11.064;2023-04-25T00:56:19;99873.20;;;14.80
68745;BMP180;66104;45.456;11.064;2023-04-25T00:58:58;99865.00;;;14.70
68745;BMP180;66104;45.456;11.064;2023-04-25T01:01:37;99867.60;;;14.60
68745;BMP180;66104;45.456;11.064;2023-04-25T01:04:16;99874.00;;;14.60
68745;BMP180;66104;45.456;11.064;2023-04-25T01:06:56;99870.40;;;14.50
68745;BMP180;66104;45.456;11.064;2023-04-25T01:09:37;99870.20;;;14.50
68745;BMP180;66104;45.456;11.064;2023-04-25T01:12:15;99861.80;;;14.40
68745;BMP180;66104;45.456;11.064;2023-04-25T01:14:57;99855.20;;;14.40
68745;BMP180;66104;45.456;11.064;2023-04-25T01:17:37;99851.40;;;14.40
68745;BMP180;66104;45.456;11.064;2023-04-25T01:20:19;99842.20;;;14.30
68745;BMP180;66104;45.456;11.064;2023-04-25T01:23:01;99844.40;;;14.20
68745;BMP180;66104;45.456;11.064;2023-04-25T01:25:45;99846.60;;;14.20
68745;BMP180;66104;45.456;11.064;2023-04-25T01:28:27;99852.80;;;14.20
68745;BMP180;66104;45.456;11.064;2023-04-25T01:31:07;99855.40;;;14.20
68745;BMP180;66104;45.456;11.064;2023-04-25T01:33:48;99854.60;;;14.28
68745;BMP180;66104;45.456;11.064;2023-04-25T01:36:31;99851.80;;;14.28
68745;BMP180;66104;45.456;11.064;2023-04-25T01:39:11;99845.40;;;14.30
68745;BMP180;66104;45.456;11.064;2023-04-25T01:41:50;99841.00;;;14.30
68745;BMP180;66104;45.456;11.064;2023-04-25T01:44:29;99833.00;;;14.30
68745;BMP180;66104;45.456;11.064;2023-04-25T01:47:08;99841.60;;;14.40
68745;BMP180;66104;45.456;11.064;2023-04-25T01:49:46;99845.40;;;14.40
68745;BMP180;66104;45.456;11.064;2023-04-25T01:52:24;99846.40;;;14.42
68745;BMP180;66104;45.456;11.064;2023-04-25T01:55:09;99844.20;;;14.50
68745;BMP180;66104;45.456;11.064;2023-04-25T01:57:58;99834.60;;;14.52
68745;BMP180;66104;45.456;11.064;2023-04-25T02:00:55;99836.20;;;14.60
68745;BMP180;66104;45.456;11.064;2023-04-25T02:03:36;99832.20;;;14.60
68745;BMP180;66104;45.456;11.064;2023-04-25T02:06:20;99836.20;;;14.60
68745;BMP180;66104;45.456;11.064;2023-04-25T02:08:59;99832.40;;;14.62
68745;BMP180;66104;45.456;11.064;2023-04-25T02:11:37;99828.40;;;14.70
68745;BMP180;66104;45.456;11.064;2023-04-25T02:14:29;99825.40;;;14.76
68745;BMP180;66104;45.456;11.064;2023-04-25T02:17:18;99819.40;;;14.80
68745;BMP180;66104;45.456;11.064;2023-04-25T02:19:58;99811.40;;;14.80
68745;BMP180;66104;45.456;11.064;2023-04-25T02:22:39;99804.60;;;14.82
68745;BMP180;66104;45.456;11.064;2023-04-25T02:25:21;99798.40;;;14.80
68745;BMP180;66104;45.456;11.064;2023-04-25T02:28:00;99792.80;;;14.80
68745;BMP180;66104;45.456;11.064;2023-04-25T02:30:40;99789.20;;;14.82
68745;BMP180;66104;45.456;11.064;2023-04-25T02:33:19;99786.20;;;14.90
68745;BMP180;66104;45.456;11.064;2023-04-25T02:35:57;99776.80;;;14.90
68745;BMP180;66104;45.456;11.064;2023-04-25T02:38:36;99777.20;;;14.90
68745;BMP180;66104;45.456;11.064;2023-04-25T02:41:14;99779.40;;;14.90
68745;BMP180;66104;45.456;11.064;2023-04-25T02:43:53;99764.20;;;14.90
68745;BMP180;66104;45.456;11.064;2023-04-25T02:46:33;99759.60;;;14.90
68745;BMP180;66104;45.456;11.064;2023-04-25T02:49:13;99750.20;;;14.90
68745;BMP180;66104;45.456;11.064;2023-04-25T02:51:53;99753.00;;;14.96
68745;BMP180;66104;45.456;11.064;2023-04-25T02:54:35;99759.60;;;15.00
68745;BMP180;66104;45.456;11.064;2023-04-25T02:57:15;99775.20;;;15.00
68745;BMP180;66104;45.456;11.064;2023-04-25T02:59:54;99793.20;;;15.10
68745;BMP180;66104;45.456;11.064;2023-04-25T03:02:34;99797.40;;;15.10
68745;BMP180;66104;45.456;11.064;2023-04-25T03:05:13;99791.20;;;15.00
68745;BMP180;66104;45.456;11.064;2023-04-25T03:07:52;99770.40;;;14.90
68745;BMP180;66104;45.456;11.064;2023-04-25T03:10:35;99746.20;;;14.76
68745;BMP180;66104;45.456;11.064;2023-04-25T03:13:17;99738.80;;;14.60
68745;BMP180;66104;45.456;11.064;2023-04-25T03:15:54;99737.20;;;14.32
68745;BMP180;66104;45.456;11.064;2023-04-25T03:18:34;99732.00;;;14.10
68745;BMP180;66104;45.456;11.064;2023-04-25T03:21:14;99736.80;;;13.98
68745;BMP180;66104;45.456;11.064;2023-04-25T03:23:53;99749.60;;;13.90
68745;BMP180;66104;45.456;11.064;2023-04-25T03:26:31;99761.80;;;13.92
68745;BMP180;66104;45.456;11.064;2023-04-25T03:29:10;99771.00;;;14.00
68745;BMP180;66104;45.456;11.064;2023-04-25T03:31:49;99782.80;;;14.00
68745;BMP180;66104;45.456;11.064;2023-04-25T03:34:25;99791.60;;;14.10
68745;BMP180;66104;45.456;11.064;2023-04-25T03:37:02;99809.20;;;14.10
68745;BMP180;66104;45.456;11.064;2023-04-25T03:39:43;99819.80;;;14.10
68745;BMP180;66104;45.456;11.064;2023-04-25T03:42:22;99826.00;;;14.16
68745;BMP180;66104;45.456;11.064;2023-04-25T03:45:00;99826.60;;;14.20
68745;BMP180;66104;45.456;11.064;2023-04-25T03:47:37;99819.60;;;14.20
68745;BMP180;66104;45.456;11.064;2023-04-25T03:50:18;99808.00;;;14.10
68745;BMP180;66104;45.456;11.064;2023-04-25T03:52:57;99786.80;;;13.90
68745;BMP180;66104;45.456;11.064;2023-04-25T03:55:37;99772.40;;;13.90
68745;BMP180;66104;45.456;11.064;2023-04-25T03:58:16;99779.60;;;13.90
68745;BMP180;66104;45.456;11.064;2023-04-25T04:00:54;99775.20;;;14.00
68745;BMP180;66104;45.456;11.064;2023-04-25T04:03:32;99772.40;;;14.00
68745;BMP180;66104;45.456;11.064;2023-04-25T04:06:10;99784.00;;;14.10
68745;BMP180;66104;45.456;11.064;2023-04-25T04:08:52;99794.20;;;14.14
68745;BMP180;66104;45.456;11.064;2023-04-25T04:11:31;99791.60;;;14.20
68745;BMP180;66104;45.456;11.064;2023-04-25T04:14:07;99798.60;;;14.20
68745;BMP180;66104;45.456;11.064;2023-04-25T04:16:48;99795.60;;;14.10
68745;BMP180;66104;45.456;11.064;2023-04-25T04:19:26;99797.80;;;14.10
68745;BMP180;66104;45.456;11.064;2023-04-25T04:22:16;99801.60;;;14.08
68745;BMP180;66104;45.456;11.064;2023-04-25T04:24:54;99805.00;;;14.00
68745;BMP180;66104;45.456;11.064;2023-04-25T04:27:55;99813.40;;;14.00
68745;BMP180;66104;45.456;11.064;2023-04-25T04:30:53;99809.00;;;13.90
68745;BMP180;66104;45.456;11.064;2023-04-25T04:33:31;99800.60;;;13.92
68745;BMP180;66104;45.456;11.064;2023-04-25T04:36:11;99800.00;;;13.90
68745;BMP180;66104;45.456;11.064;2023-04-25T04:38:48;99796.20;;;13.90
68745;BMP180;66104;45.456;11.064;2023-04-25T04:41:39;99786.00;;;13.90
68745;BMP180;66104;45.456;11.064;2023-04-25T04:44:38;99783.80;;;13.90
68745;BMP180;66104;45.456;11.064;2023-04-25T04:47:33;99776.20;;;13.90
68745;BMP180;66104;45.456;11.064;2023-04-25T04:50:37;99780.00;;;13.80
68745;BMP180;66104;45.456;11.064;2023-04-25T04:53:24;99776.20;;;13.80
68745;BMP180;66104;45.456;11.064;2023-04-25T04:56:00;99789.20;;;13.80
68745;BMP180;66104;45.456;11.064;2023-04-25T04:58:41;99788.20;;;13.80
68745;BMP180;66104;45.456;11.064;2023-04-25T05:01:34;99787.60;;;13.80
68745;BMP180;66104;45.456;11.064;2023-04-25T05:04:30;99788.00;;;13.80
68745;BMP180;66104;45.456;11.064;2023-04-25T05:07:33;99795.80;;;13.80
68745;BMP180;66104;45.456;11.064;2023-04-25T05:10:44;99828.00;;;13.90
68745;BMP180;66104;45.456;11.064;2023-04-25T05:13:41;99861.80;;;14.00
68745;BMP180;66104;45.456;11.064;2023-04-25T05:16:34;99871.80;;;14.00
68745;BMP180;66104;45.456;11.064;2023-04-25T05:19:32;99885.80;;;14.00
68745;BMP180;66104;45.456;11.064;2023-04-25T05:22:30;99900.40;;;14.10
68745;BMP180;66104;45.456;11.064;2023-04-25T05:25:19;99934.00;;;14.10
68745;BMP180;66104;45.456;11.064;2023-04-25T05:28:33;99987.60;;;13.78
68745;BMP180;66104;45.456;11.064;2023-04-25T05:31:28;99999.20;;;13.30
68745;BMP180;66104;45.456;11.064;2023-04-25T05:34:13;99979.20;;;12.90
68745;BMP180;66104;45.456;11.064;2023-04-25T05:37:10;99968.40;;;12.50
68745;BMP180;66104;45.456;11.064;2023-04-25T05:39:58;99959.60;;;12.40
68745;BMP180;66104;45.456;11.064;2023-04-25T05:42:55;99954.00;;;12.20
68745;BMP180;66104;45.456;11.064;2023-04-25T05:45:50;99949.00;;;12.14
68745;BMP180;66104;45.456;11.064;2023-04-25T05:48:32;99936.60;;;12.00
68745;BMP180;66104;45.456;11.064;2023-04-25T05:51:33;99936.00;;;12.00
68745;BMP180;66104;45.456;11.064;2023-04-25T05:54:34;99941.60;;;12.00
68745;BMP180;66104;45.456;11.064;2023-04-25T05:57:18;99957.00;;;12.00
68745;BMP180;66104;45.456;11.064;2023-04-25T06:00:00;99950.60;;;12.10
68745;BMP180;66104;45.456;11.064;2023-04-25T06:02:49;99937.80;;;12.10
68745;BMP180;66104;45.456;11.064;2023-04-25T06:05:25;99923.40;;;12.10
68745;BMP180;66104;45.456;11.064;2023-04-25T06:08:02;99906.40;;;12.00
68745;BMP180;66104;45.456;11.064;2023-04-25T06:10:41;99902.40;;;11.90
68745;BMP180;66104;45.456;11.064;2023-04-25T06:13:18;99899.00;;;11.96
68745;BMP180;66104;45.456;11.064;2023-04-25T06:15:56;99892.40;;;12.00
68745;BMP180;66104;45.456;11.064;2023-04-25T06:18:34;99885.60;;;12.00
68745;BMP180;66104;45.456;11.064;2023-04-25T06:21:11;99891.40;;;12.00
68745;BMP180;66104;45.456;11.064;2023-04-25T06:23:48;99902.20;;;12.00
68745;BMP180;66104;45.456;11.064;2023-04-25T06:26:28;99907.80;;;12.00
68745;BMP180;66104;45.456;11.064;2023-04-25T06:29:07;99905.80;;;12.08
68745;BMP180;66104;45.456;11.064;2023-04-25T06:31:44;99910.60;;;12.10
68745;BMP180;66104;45.456;11.064;2023-04-25T06:34:22;99915.40;;;12.20
68745;BMP180;66104;45.456;11.064;2023-04-25T06:37:01;99916.80;;;12.24
68745;BMP180;66104;45.456;11.064;2023-04-25T06:39:38;99920.60;;;12.32
68745;BMP180;66104;45.456;11.064;2023-04-25T06:42:15;99919.60;;;12.40
68745;BMP180;66104;45.456;11.064;2023-04-25T06:44:58;99910.60;;;12.50
68745;BMP180;66104;45.456;11.064;2023-04-25T06:47:35;99901.00;;;12.50
68745;BMP180;66104;45.456;11.064;2023-04-25T06:50:15;99899.20;;;12.50
68745;BMP180;66104;45.456;11.064;2023-04-25T06:52:53;99902.80;;;12.58
68745;BMP180;66104;45.456;11.064;2023-04-25T06:55:30;99910.60;;;12.60
68745;BMP180;66104;45.456;11.064;2023-04-25T06:58:20;99901.00;;;12.60
68745;BMP180;66104;45.456;11.064;2023-04-25T07:01:16;99902.00;;;12.60
68745;BMP180;66104;45.456;11.064;2023-04-25T07:03:54;99897.40;;;12.56
68745;BMP180;66104;45.456;11.064;2023-04-25T07:06:31;99883.80;;;12.56
68745;BMP180;66104;45.456;11.064;2023-04-25T07:09:09;99870.40;;;12.50
68745;BMP180;66104;45.456;11.064;2023-04-25T07:11:48;99863.00;;;12.50
68745;BMP180;66104;45.456;11.064;2023-04-25T07:14:25;99863.40;;;12.40
68745;BMP180;66104;45.456;11.064;2023-04-25T07:17:02;99852.80;;;12.40
68745;BMP180;66104;45.456;11.064;2023-04-25T07:19:41;99856.20;;;12.30
68745;BMP180;66104;45.456;11.064;2023-04-25T07:22:19;99859.00;;;12.30
68745;BMP180;66104;45.456;11.064;2023-04-25T07:24:55;99849.40;;;12.30
68745;BMP180;66104;45.456;11.064;2023-04-25T07:27:33;99847.00;;;12.30
68745;BMP180;66104;45.456;11.064;2023-04-25T07:30:19;99851.60;;;12.30
68745;BMP180;66104;45.456;11.064;2023-04-25T07:32:56;99849.80;;;12.30
68745;BMP180;66104;45.456;11.064;2023-04-25T07:35:32;99849.80;;;12.30
68745;BMP180;66104;45.456;11.064;2023-04-25T07:38:10;99846.80;;;12.30
68745;BMP180;66104;45.456;11.064;2023-04-25T07:40:47;99840.00;;;12.30
68745;BMP180;66104;45.456;11.064;2023-04-25T07:43:23;99832.80;;;12.30
68745;BMP180;66104;45.456;11.064;2023-04-25T07:46:04;99825.80;;;12.30
68745;BMP180;66104;45.456;11.064;2023-04-25T07:48:42;99824.60;;;12.30
68745;BMP180;66104;45.456;11.064;2023-04-25T07:51:18;99819.00;;;12.30
68745;BMP180;66104;45.456;11.064;2023-04-25T07:53:58;99819.80;;;12.30
68745;BMP180;66104;45.456;11.064;2023-04-25T07:56:37;99822.40;;;12.36
68745;BMP180;66104;45.456;11.064;2023-04-25T07:59:28;99824.60;;;12.40
68745;BMP180;66104;45.456;11.064;2023-04-25T08:02:06;99825.80;;;12.60
68745;BMP180;66104;45.456;11.064;2023-04-25T08:04:44;99825.80;;;12.80
68745;BMP180;66104;45.456;11.064;2023-04-25T08:07:23;99817.40;;;13.00
68745;BMP180;66104;45.456;11.064;2023-04-25T08:10:02;99823.40;;;13.20
68745;BMP180;66104;45.456;11.064;2023-04-25T08:12:39;99828.80;;;13.40
68745;BMP180;66104;45.456;11.064;2023-04-25T08:15:19;99828.80;;;13.50
68745;BMP180;66104;45.456;11.064;2023-04-25T08:17:59;99822.80;;;13.60
68745;BMP180;66104;45.456;11.064;2023-04-25T08:20:37;99833.60;;;13.64
68745;BMP180;66104;45.456;11.064;2023-04-25T08:23:16;99829.60;;;13.70
68745;BMP180;66104;45.456;11.064;2023-04-25T08:26:20;99832.00;;;13.64
68745;BMP180;66104;45.456;11.064;2023-04-25T08:28:58;99847.20;;;13.70
68745;BMP180;66104;45.456;11.064;2023-04-25T08:31:34;99838.80;;;13.80
68745;BMP180;66104;45.456;11.064;2023-04-25T08:34:14;99845.40;;;13.72
68745;BMP180;66104;45.456;11.064;2023-04-25T08:36:54;99846.00;;;13.80
68745;BMP180;66104;45.456;11.064;2023-04-25T08:39:55;99844.80;;;13.80
68745;BMP180;66104;45.456;11.064;2023-04-25T08:42:49;99855.20;;;13.80
68745;BMP180;66104;45.456;11.064;2023-04-25T08:45:28;99857.40;;;13.86
68745;BMP180;66104;45.456;11.064;2023-04-25T08:48:12;99864.00;;;13.92
68745;BMP180;66104;45.456;11.064;2023-04-25T08:50:55;99883.00;;;14.08
68745;BMP180;66104;45.456;11.064;2023-04-25T08:53:34;99867.20;;;14.20
68745;BMP180;66104;45.456;11.064;2023-04-25T08:56:14;99873.20;;;14.22
68745;BMP180;66104;45.456;11.064;2023-04-25T08:58:55;99866.80;;;14.30
68745;BMP180;66104;45.456;11.064;2023-04-25T09:01:33;99862.40;;;14.40
68745;BMP180;66104;45.456;11.064;2023-04-25T09:04:11;99862.00;;;14.56
68745;BMP180;66104;45.456;11.064;2023-04-25T09:06:49;99868.20;;;14.70
68745;BMP180;66104;45.456;11.064;2023-04-25T09:09:29;99858.40;;;14.80
68745;BMP180;66104;45.456;11.064;2023-04-25T09:12:07;99861.20;;;14.90
68745;BMP180;66104;45.456;11.064;2023-04-25T09:15:04;99868.60;;;15.00
68745;BMP180;66104;45.456;11.064;2023-04-25T09:18:00;99871.40;;;15.10
68745;BMP180;66104;45.456;11.064;2023-04-25T09:20:49;99866.60;;;15.20
68745;BMP180;66104;45.456;11.064;2023-04-25T09:23:30;99873.00;;;15.30
68745;BMP180;66104;45.456;11.064;2023-04-25T09:26:10;99870.20;;;15.40
68745;BMP180;66104;45.456;11.064;2023-04-25T09:28:51;99872.40;;;15.50
68745;BMP180;66104;45.456;11.064;2023-04-25T09:31:43;99869.20;;;15.60
68745;BMP180;66104;45.456;11.064;2023-04-25T09:34:23;99864.80;;;15.60
68745;BMP180;66104;45.456;11.064;2023-04-25T09:37:06;99865.40;;;15.70
68745;BMP180;66104;45.456;11.064;2023-04-25T09:40:21;99864.20;;;15.72
68745;BMP180;66104;45.456;11.064;2023-04-25T09:43:21;99865.80;;;15.80
68745;BMP180;66104;45.456;11.064;2023-04-25T09:45:58;99861.60;;;16.00
68745;BMP180;66104;45.456;11.064;2023-04-25T09:48:36;99867.60;;;16.10
68745;BMP180;66104;45.456;11.064;2023-04-25T09:51:15;99869.60;;;16.20
68745;BMP180;66104;45.456;11.064;2023-04-25T09:53:54;99863.80;;;16.30
68745;BMP180;66104;45.456;11.064;2023-04-25T09:56:53;99863.40;;;16.32
68745;BMP180;66104;45.456;11.064;2023-04-25T09:59:33;99869.60;;;16.44
68745;BMP180;66104;45.456;11.064;2023-04-25T10:02:13;99873.00;;;16.50
68745;BMP180;66104;45.456;11.064;2023-04-25T10:04:54;99872.60;;;16.60
68745;BMP180;66104;45.456;11.064;2023-04-25T10:07:39;99875.20;;;16.70
68745;BMP180;66104;45.456;11.064;2023-04-25T10:10:23;99876.80;;;16.78
68745;BMP180;66104;45.456;11.064;2023-04-25T10:13:07;99877.20;;;16.80
68745;BMP180;66104;45.456;11.064;2023-04-25T10:15:49;99882.20;;;16.90
68745;BMP180;66104;45.456;11.064;2023-04-25T10:18:29;99869.80;;;16.86
68745;BMP180;66104;45.456;11.064;2023-04-25T10:21:09;99880.20;;;16.94
68745;BMP180;66104;45.456;11.064;2023-04-25T10:23:49;99877.80;;;16.90
68745;BMP180;66104;45.456;11.064;2023-04-25T10:26:28;99875.20;;;17.00
68745;BMP180;66104;45.456;11.064;2023-04-25T10:29:08;99873.20;;;17.10
68745;BMP180;66104;45.456;11.064;2023-04-25T10:31:50;99884.20;;;17.26
68745;BMP180;66104;45.456;11.064;2023-04-25T10:34:43;99879.20;;;17.28
68745;BMP180;66104;45.456;11.064;2023-04-25T10:37:24;99875.60;;;17.30
68745;BMP180;66104;45.456;11.064;2023-04-25T10:40:15;99873.60;;;17.30
68745;BMP180;66104;45.456;11.064;2023-04-25T10:43:39;99873.60;;;17.40
68745;BMP180;66104;45.456;11.064;2023-04-25T10:46:27;99872.80;;;17.40
68745;BMP180;66104;45.456;11.064;2023-04-25T10:49:05;99881.40;;;17.40
68745;BMP180;66104;45.456;11.064;2023-04-25T10:51:50;99885.40;;;17.40
68745;BMP180;66104;45.456;11.064;2023-04-25T10:54:30;99884.60;;;17.30
68745;BMP180;66104;45.456;11.064;2023-04-25T11:00:26;99890.20;;;17.16
68745;BMP180;66104;45.456;11.064;2023-04-25T11:03:23;99888.00;;;17.20
68745;BMP180;66104;45.456;11.064;2023-04-25T11:06:14;99890.20;;;17.20
68745;BMP180;66104;45.456;11.064;2023-04-25T11:08:56;99886.20;;;17.30
68745;BMP180;66104;45.456;11.064;2023-04-25T11:11:33;99887.80;;;17.18
68745;BMP180;66104;45.456;11.064;2023-04-25T11:14:13;99878.80;;;17.10
68745;BMP180;66104;45.456;11.064;2023-04-25T11:16:54;99880.00;;;17.20
68745;BMP180;66104;45.456;11.064;2023-04-25T11:19:53;99878.00;;;17.38
68745;BMP180;66104;45.456;11.064;2023-04-25T11:22:31;99883.00;;;17.20
68745;BMP180;66104;45.456;11.064;2023-04-25T11:25:15;99867.60;;;17.10
68745;BMP180;66104;45.456;11.064;2023-04-25T11:27:57;99887.20;;;17.10
68745;BMP180;66104;45.456;11.064;2023-04-25T11:30:35;99887.40;;;17.10
68745;BMP180;66104;45.456;11.064;2023-04-25T11:33:11;99877.00;;;17.10
68745;BMP180;66104;45.456;11.064;2023-04-25T11:35:48;99886.40;;;17.20
68745;BMP180;66104;45.456;11.064;2023-04-25T11:38:26;99891.80;;;17.20
68745;BMP180;66104;45.456;11.064;2023-04-25T11:41:04;99893.20;;;17.00
68745;BMP180;66104;45.456;11.064;2023-04-25T11:43:41;99892.20;;;16.90
68745;BMP180;66104;45.456;11.064;2023-04-25T11:46:19;99885.40;;;16.90
68745;BMP180;66104;45.456;11.064;2023-04-25T11:49:00;99887.00;;;16.90
68745;BMP180;66104;45.456;11.064;2023-04-25T11:51:45;99892.20;;;16.88
68745;BMP180;66104;45.456;11.064;2023-04-25T11:54:25;99892.00;;;16.70
68745;BMP180;66104;45.456;11.064;2023-04-25T11:57:04;99902.40;;;16.70
68745;BMP180;66104;45.456;11.064;2023-04-25T11:59:41;99902.60;;;16.50
68745;BMP180;66104;45.456;11.064;2023-04-25T12:02:30;99908.80;;;16.50
68745;BMP180;66104;45.456;11.064;2023-04-25T12:05:12;99908.80;;;16.40
68745;BMP180;66104;45.456;11.064;2023-04-25T12:08:15;99911.00;;;16.30
68745;BMP180;66104;45.456;11.064;2023-04-25T12:10:52;99913.60;;;16.30
68745;BMP180;66104;45.456;11.064;2023-04-25T12:13:33;99907.80;;;16.10
68745;BMP180;66104;45.456;11.064;2023-04-25T12:16:11;99914.20;;;16.10
68745;BMP180;66104;45.456;11.064;2023-04-25T12:18:48;99919.40;;;16.00
68745;BMP180;66104;45.456;11.064;2023-04-25T12:21:31;99927.40;;;15.82
68745;BMP180;66104;45.456;11.064;2023-04-25T12:24:25;99938.80;;;15.60
68745;BMP180;66104;45.456;11.064;2023-04-25T12:27:07;99936.40;;;15.40
68745;BMP180;66104;45.456;11.064;2023-04-25T12:29:52;99941.20;;;15.20
68745;BMP180;66104;45.456;11.064;2023-04-25T12:32:29;99927.40;;;15.10
68745;BMP180;66104;45.456;11.064;2023-04-25T12:35:08;99946.00;;;15.00
68745;BMP180;66104;45.456;11.064;2023-04-25T12:37:46;99950.20;;;14.82
68745;BMP180;66104;45.456;11.064;2023-04-25T12:40:23;99961.00;;;14.70
68745;BMP180;66104;45.456;11.064;2023-04-25T12:43:01;99964.60;;;14.60
68745;BMP180;66104;45.456;11.064;2023-04-25T12:45:37;99968.00;;;14.50
68745;BMP180;66104;45.456;11.064;2023-04-25T12:48:14;99963.60;;;14.42
68745;BMP180;66104;45.456;11.064;2023-04-25T12:50:52;99970.20;;;14.40
68745;BMP180;66104;45.456;11.064;2023-04-25T12:53:29;99973.20;;;14.40
68745;BMP180;66104;45.456;11.064;2023-04-25T12:56:10;99977.60;;;14.32
68745;BMP180;66104;45.456;11.064;2023-04-25T12:58:47;99969.20;;;14.30
68745;BMP180;66104;45.456;11.064;2023-04-25T13:01:24;99968.40;;;14.30
68745;BMP180;66104;45.456;11.064;2023-04-25T13:04:02;99962.00;;;14.30
68745;BMP180;66104;45.456;11.064;2023-04-25T13:06:38;99968.00;;;14.26
68745;BMP180;66104;45.456;11.064;2023-04-25T13:09:16;99978.00;;;14.20
68745;BMP180;66104;45.456;11.064;2023-04-25T13:11:52;99993.60;;;14.20
68745;BMP180;66104;45.456;11.064;2023-04-25T13:14:32;100000.60;;;14.26
68745;BMP180;66104;45.456;11.064;2023-04-25T13:17:09;99994.20;;;14.30
68745;BMP180;66104;45.456;11.064;2023-04-25T13:19:46;99992.00;;;14.30
68745;BMP180;66104;45.456;11.064;2023-04-25T13:22:23;100005.00;;;14.30
68745;BMP180;66104;45.456;11.064;2023-04-25T13:25:00;100011.20;;;14.40
68745;BMP180;66104;45.456;11.064;2023-04-25T13:27:37;100018.20;;;14.40
68745;BMP180;66104;45.456;11.064;2023-04-25T13:30:16;100013.80;;;14.40
68745;BMP180;66104;45.456;11.064;2023-04-25T13:32:54;100012.20;;;14.48
68745;BMP180;66104;45.456;11.064;2023-04-25T13:35:37;100012.00;;;14.40
68745;BMP180;66104;45.456;11.064;2023-04-25T13:38:14;100021.40;;;14.50
68745;BMP180;66104;45.456;11.064;2023-04-25T13:40:52;100019.40;;;14.50
68745;BMP180;66104;45.456;11.064;2023-04-25T13:43:29;100012.60;;;14.52
68745;BMP180;66104;45.456;11.064;2023-04-25T13:46:06;100006.60;;;14.60
68745;BMP180;66104;45.456;11.064;2023-04-25T13:49:03;100007.40;;;14.60
68745;BMP180;66104;45.456;11.064;2023-04-25T13:51:46;100009.00;;;14.60
68745;BMP180;66104;45.456;11.064;2023-04-25T13:54:24;100001.60;;;14.50
68745;BMP180;66104;45.456;11.064;2023-04-25T13:57:00;100001.60;;;14.40
68745;BMP180;66104;45.456;11.064;2023-04-25T13:59:37;100016.60;;;14.40
68745;BMP180;66104;45.456;11.064;2023-04-25T14:02:15;100029.20;;;14.40
68745;BMP180;66104;45.456;11.064;2023-04-25T14:04:52;100030.60;;;14.30
68745;BMP180;66104;45.456;11.064;2023-04-25T14:07:29;100036.00;;;14.20
68745;BMP180;66104;45.456;11.064;2023-04-25T14:10:08;100046.20;;;14.20
68745;BMP180;66104;45.456;11.064;2023-04-25T14:12:46;100049.40;;;14.20
68745;BMP180;66104;45.456;11.064;2023-04-25T14:15:23;100051.20;;;14.20
68745;BMP180;66104;45.456;11.064;2023-04-25T14:18:00;100050.20;;;14.20
68745;BMP180;66104;45.456;11.064;2023-04-25T14:20:37;100050.80;;;14.30
68745;BMP180;66104;45.456;11.064;2023-04-25T14:23:14;100052.20;;;14.30
68745;BMP180;66104;45.456;11.064;2023-04-25T14:25:52;100046.40;;;14.30
68745;BMP180;66104;45.456;11.064;2023-04-25T14:28:29;100050.60;;;14.40
68745;BMP180;66104;45.456;11.064;2023-04-25T14:31:06;100045.80;;;14.40
68745;BMP180;66104;45.456;11.064;2023-04-25T14:33:42;100042.80;;;14.40
68745;BMP180;66104;45.456;11.064;2023-04-25T14:36:19;100039.80;;;14.40
68745;BMP180;66104;45.456;11.064;2023-04-25T14:38:56;100029.60;;;14.40
68745;BMP180;66104;45.456;11.064;2023-04-25T14:41:32;100019.40;;;14.40
68745;BMP180;66104;45.456;11.064;2023-04-25T14:44:10;100009.60;;;14.50
68745;BMP180;66104;45.456;11.064;2023-04-25T14:46:47;99997.00;;;14.50
68745;BMP180;66104;45.456;11.064;2023-04-25T14:49:25;99994.40;;;14.50
68745;BMP180;66104;45.456;11.064;2023-04-25T14:52:02;100000.60;;;14.60
68745;BMP180;66104;45.456;11.064;2023-04-25T14:54:39;100003.00;;;14.60
68745;BMP180;66104;45.456;11.064;2023-04-25T14:57:16;100003.40;;;14.70
68745;BMP180;66104;45.456;11.064;2023-04-25T14:59:53;100012.80;;;14.80
68745;BMP180;66104;45.456;11.064;2023-04-25T15:02:30;100013.20;;;14.80
68745;BMP180;66104;45.456;11.064;2023-04-25T15:05:09;100002.00;;;14.90
68745;BMP180;66104;45.456;11.064;2023-04-25T15:07:46;99993.20;;;15.00
68745;BMP180;66104;45.456;11.064;2023-04-25T15:10:25;99992.20;;;15.12
68745;BMP180;66104;45.456;11.064;2023-04-25T15:13:02;99995.00;;;15.30
68745;BMP180;66104;45.456;11.064;2023-04-25T15:15:40;99998.40;;;15.30
68745;BMP180;66104;45.456;11.064;2023-04-25T15:18:19;100004.80;;;15.40